Metar z połowy godziny Komunikat METAR ze strony awiacja.imgw.pl Metar G30 EPPO METAR EPPO 200930Z 24008KT CAVOK 30/14 Q1009 =